Time;durP1;ratioP1;P1;durP2;ratioP2;P2;SDS_P1;SDS_P2;PMS_P1;PMS_P2;Temp;Humidity;BMP_temperature;BMP_pressure;BME280_temperature;BME280_humidity;BME280_pressure;Samples;Min_cycle;Max_cycle;Signal;HPM_P1;HPM_P2
2022/07/19 00:01:09;;;;;;;39.78;6.60;;;;;;;;;;4970585;28;20042;-72
2022/07/19 00:03:36;;;;;;;41.88;6.70;;;;;;;;;;4970844;28;20488;-72
2022/07/19 00:06:02;;;;;;;19.85;5.20;;;;;;;;;;4972069;28;20559;-72
2022/07/19 00:08:29;;;;;;;50.42;7.28;;;;;;;;;;4973030;28;20035;-72
2022/07/19 00:10:55;;;;;;;35.50;5.78;;;;;;;;;;4972351;28;20101;-69
2022/07/19 00:13:22;;;;;;;36.45;5.88;;;;;;;;;;4970207;28;20522;-75
2022/07/19 00:15:51;;;;;;;41.75;6.30;;;;;;;;;;4970526;28;20047;-75
2022/07/19 00:18:18;;;;;;;39.90;6.28;;;;;;;;;;4970779;28;20053;-75
2022/07/19 00:20:44;;;;;;;18.02;5.20;;;;;;;;;;4971218;28;20067;-73
2022/07/19 00:23:11;;;;;;;46.88;6.28;;;;;;;;;;4973835;28;20042;-73
2022/07/19 00:25:37;;;;;;;28.92;5.38;;;;;;;;;;4970435;28;20105;-77
2022/07/19 00:28:05;;;;;;;13.80;4.45;;;;;;;;;;4970724;28;20043;-75
2022/07/19 00:30:32;;;;;;;37.65;6.43;;;;;;;;;;4969813;28;20046;-75
2022/07/19 00:32:58;;;;;;;19.23;4.95;;;;;;;;;;4970956;28;20118;-68
2022/07/19 00:35:25;;;;;;;55.13;7.60;;;;;;;;;;4960575;28;20071;-68
2022/07/19 00:37:51;;;;;;;34.53;5.47;;;;;;;;;;4953910;28;20054;-67
2022/07/19 00:40:24;;;;;;;34.50;5.88;;;;;;;;;;4969972;28;20046;-66
2022/07/19 00:42:51;;;;;;;22.05;5.25;;;;;;;;;;4969999;28;20070;-67
2022/07/19 00:45:18;;;;;;;40.75;6.20;;;;;;;;;;4966695;28;20043;-66
2022/07/19 00:47:44;;;;;;;20.58;6.03;;;;;;;;;;4970841;28;20070;-72
2022/07/19 00:50:11;;;;;;;21.23;5.82;;;;;;;;;;4956993;28;20050;-68
2022/07/19 00:52:38;;;;;;;36.88;6.47;;;;;;;;;;4963835;28;20058;-67
2022/07/19 00:55:05;;;;;;;13.70;4.28;;;;;;;;;;4964962;28;20039;-68
2022/07/19 00:57:32;;;;;;;33.95;5.85;;;;;;;;;;4969522;28;20122;-68
2022/07/19 00:59:59;;;;;;;35.47;6.20;;;;;;;;;;4969659;28;20066;-71
2022/07/19 01:02:26;;;;;;;28.10;5.72;;;;;;;;;;4973047;28;20047;-72
2022/07/19 01:04:53;;;;;;;23.35;5.53;;;;;;;;;;4967504;28;20070;-72
2022/07/19 01:07:23;;;;;;;41.08;6.50;;;;;;;;;;4969248;28;20434;-71
2022/07/19 01:09:51;;;;;;;17.35;5.10;;;;;;;;;;4969762;28;20031;-68
2022/07/19 01:12:18;;;;;;;39.15;6.63;;;;;;;;;;4969706;28;20462;-68
2022/07/19 01:14:45;;;;;;;29.35;5.32;;;;;;;;;;4970166;28;20046;-68
2022/07/19 01:17:11;;;;;;;36.92;6.60;;;;;;;;;;4973459;28;20483;-71
2022/07/19 01:19:38;;;;;;;26.38;5.55;;;;;;;;;;4969448;28;20047;-71
2022/07/19 01:22:04;;;;;;;58.13;7.30;;;;;;;;;;4968852;28;20503;-70
2022/07/19 01:24:31;;;;;;;21.90;5.45;;;;;;;;;;4968445;28;20109;-70
2022/07/19 01:26:58;;;;;;;32.97;5.93;;;;;;;;;;4969236;28;20050;-72
2022/07/19 01:29:24;;;;;;;47.05;7.10;;;;;;;;;;4972814;28;20051;-70
2022/07/19 01:31:51;;;;;;;14.63;4.88;;;;;;;;;;4970478;28;20078;-71
2022/07/19 01:34:17;;;;;;;16.50;4.72;;;;;;;;;;4964825;28;20047;-71
2022/07/19 01:36:44;;;;;;;29.05;5.80;;;;;;;;;;4956249;28;20133;-72
2022/07/19 01:39:11;;;;;;;26.50;5.80;;;;;;;;;;4968751;28;20067;-71
2022/07/19 01:41:37;;;;;;;36.83;5.78;;;;;;;;;;4971017;28;20077;-69
2022/07/19 01:44:04;;;;;;;28.15;5.30;;;;;;;;;;4971934;28;20042;-77
2022/07/19 01:46:30;;;;;;;22.88;5.03;;;;;;;;;;4965346;28;20447;-69
2022/07/19 01:48:57;;;;;;;24.10;5.20;;;;;;;;;;4968741;28;20042;-68
2022/07/19 01:51:24;;;;;;;48.00;6.30;;;;;;;;;;4968498;28;20610;-70
2022/07/19 01:53:50;;;;;;;18.95;5.38;;;;;;;;;;4967829;28;20051;-67
2022/07/19 01:56:17;;;;;;;22.88;5.30;;;;;;;;;;4973634;28;20073;-67
2022/07/19 01:58:43;;;;;;;47.50;7.05;;;;;;;;;;4964147;28;20073;-70
2022/07/19 02:01:10;;;;;;;28.73;5.65;;;;;;;;;;4946962;28;20042;-70
2022/07/19 02:03:36;;;;;;;27.45;5.60;;;;;;;;;;4968713;28;20070;-69
2022/07/19 02:06:03;;;;;;;17.75;4.93;;;;;;;;;;4968256;28;20031;-70
2022/07/19 02:08:30;;;;;;;44.15;6.35;;;;;;;;;;4971018;28;20498;-70
2022/07/19 02:10:59;;;;;;;33.90;6.68;;;;;;;;;;4970859;28;20054;-71
2022/07/19 02:13:25;;;;;;;19.77;5.00;;;;;;;;;;4968378;28;20125;-70
2022/07/19 02:15:52;;;;;;;28.83;5.80;;;;;;;;;;4968259;28;20047;-72
2022/07/19 02:18:18;;;;;;;36.05;6.57;;;;;;;;;;4968340;28;20057;-72
2022/07/19 02:20:45;;;;;;;44.25;6.35;;;;;;;;;;4969277;28;20122;-69
2022/07/19 02:23:11;;;;;;;30.80;5.82;;;;;;;;;;4972192;28;20057;-68
2022/07/19 02:25:38;;;;;;;53.30;7.68;;;;;;;;;;4967344;28;20070;-69
2022/07/19 02:28:04;;;;;;;33.83;5.93;;;;;;;;;;4967075;28;20399;-68
2022/07/19 02:30:31;;;;;;;52.10;7.63;;;;;;;;;;4966908;28;20566;-72
2022/07/19 02:32:58;;;;;;;53.63;7.63;;;;;;;;;;4960934;28;20075;-72
2022/07/19 02:35:24;;;;;;;46.42;7.15;;;;;;;;;;4970907;28;20046;-70
2022/07/19 02:37:51;;;;;;;44.55;7.28;;;;;;;;;;4955510;28;20074;-71
2022/07/19 02:40:17;;;;;;;34.83;6.45;;;;;;;;;;4956756;28;20035;-70
2022/07/19 02:42:44;;;;;;;32.65;6.85;;;;;;;;;;4959822;28;20122;-70
2022/07/19 02:45:11;;;;;;;43.92;6.75;;;;;;;;;;4965585;28;20049;-67
2022/07/19 02:47:38;;;;;;;30.38;6.55;;;;;;;;;;4968751;28;20047;-67
2022/07/19 02:50:05;;;;;;;12.07;5.20;;;;;;;;;;4971150;28;20038;-67
2022/07/19 02:52:32;;;;;;;44.63;6.97;;;;;;;;;;4967452;28;20507;-66
2022/07/19 02:54:58;;;;;;;18.52;5.45;;;;;;;;;;4968051;28;20626;-69
2022/07/19 02:57:25;;;;;;;38.20;6.88;;;;;;;;;;4967560;28;20119;-68
2022/07/19 02:59:51;;;;;;;40.05;6.38;;;;;;;;;;4967905;28;20154;-68
2022/07/19 03:02:18;;;;;;;21.13;5.45;;;;;;;;;;4972582;28;20134;-68
2022/07/19 03:04:44;;;;;;;29.10;5.57;;;;;;;;;;4967723;28;20121;-67
2022/07/19 03:07:11;;;;;;;77.57;9.60;;;;;;;;;;4966817;28;20039;-67
2022/07/19 03:09:38;;;;;;;38.33;6.55;;;;;;;;;;4967776;28;20046;-68
2022/07/19 03:12:04;;;;;;;15.98;5.63;;;;;;;;;;4967908;28;20444;-69
2022/07/19 03:14:31;;;;;;;42.65;7.53;;;;;;;;;;4970221;28;20491;-71
2022/07/19 03:16:58;;;;;;;28.83;5.80;;;;;;;;;;4969956;28;20039;-72
2022/07/19 03:19:26;;;;;;;46.20;7.30;;;;;;;;;;4967656;28;20562;-72
2022/07/19 03:21:53;;;;;;;37.15;6.25;;;;;;;;;;4967899;28;20042;-72
2022/07/19 03:24:20;;;;;;;23.42;5.72;;;;;;;;;;4967025;28;20094;-72
2022/07/19 03:26:46;;;;;;;32.15;6.43;;;;;;;;;;4968474;28;20106;-73
2022/07/19 03:29:13;;;;;;;48.03;7.50;;;;;;;;;;4966953;28;20145;-72
2022/07/19 03:31:39;;;;;;;44.10;6.88;;;;;;;;;;4966873;28;20131;-72
2022/07/19 03:34:06;;;;;;;21.83;6.57;;;;;;;;;;4962243;28;20403;-71
2022/07/19 03:36:33;;;;;;;29.38;6.05;;;;;;;;;;4967763;28;20059;-76
2022/07/19 03:38:59;;;;;;;29.00;7.00;;;;;;;;;;4958563;28;20040;-69
2022/07/19 03:41:26;;;;;;;35.80;7.32;;;;;;;;;;4967976;28;20121;-71
2022/07/19 03:43:52;;;;;;;22.60;5.28;;;;;;;;;;4968532;28;20038;-69
2022/07/19 03:46:20;;;;;;;42.78;7.30;;;;;;;;;;4964251;28;20134;-68
2022/07/19 03:48:47;;;;;;;29.02;6.68;;;;;;;;;;4971124;28;20051;-68
2022/07/19 03:51:14;;;;;;;23.58;5.90;;;;;;;;;;4970994;28;20127;-70
2022/07/19 03:53:40;;;;;;;27.85;6.43;;;;;;;;;;4971744;28;20120;-69
2022/07/19 03:56:07;;;;;;;53.92;7.75;;;;;;;;;;4974557;28;20078;-68
2022/07/19 03:58:34;;;;;;;29.25;6.03;;;;;;;;;;4970869;28;20038;-67
2022/07/19 04:01:00;;;;;;;33.25;6.65;;;;;;;;;;4970652;28;20049;-69
2022/07/19 04:03:27;;;;;;;21.13;6.32;;;;;;;;;;4970884;28;20085;-72
2022/07/19 04:05:53;;;;;;;35.53;7.10;;;;;;;;;;4970576;28;20408;-66
2022/07/19 04:08:20;;;;;;;42.70;8.20;;;;;;;;;;4974878;28;20558;-65
2022/07/19 04:10:47;;;;;;;48.53;7.55;;;;;;;;;;4970446;28;20478;-64
2022/07/19 04:13:13;;;;;;;60.20;9.10;;;;;;;;;;4970220;28;20117;-64
2022/07/19 04:15:40;;;;;;;61.05;8.25;;;;;;;;;;4970379;28;20043;-64
2022/07/19 04:18:11;;;;;;;67.22;9.70;;;;;;;;;;4970198;28;20043;-63
2022/07/19 04:20:39;;;;;;;45.22;7.75;;;;;;;;;;4972217;28;20109;-64
2022/07/19 04:23:05;;;;;;;57.22;8.30;;;;;;;;;;4973044;28;20074;-63
2022/07/19 04:25:32;;;;;;;44.50;8.07;;;;;;;;;;4970086;28;20035;-65
2022/07/19 04:27:59;;;;;;;28.98;6.78;;;;;;;;;;4968940;28;20039;-66
2022/07/19 04:30:25;;;;;;;39.53;7.38;;;;;;;;;;4959372;28;20078;-67
2022/07/19 04:32:52;;;;;;;30.17;7.70;;;;;;;;;;4970419;28;20095;-66
2022/07/19 04:35:18;;;;;;;38.63;7.70;;;;;;;;;;4951613;28;20036;-66
2022/07/19 04:37:45;;;;;;;66.82;10.85;;;;;;;;;;4968698;28;20518;-67
2022/07/19 04:40:11;;;;;;;54.13;9.18;;;;;;;;;;4969805;28;20046;-66
2022/07/19 04:42:38;;;;;;;17.00;6.18;;;;;;;;;;4968260;28;20109;-67
2022/07/19 04:45:06;;;;;;;76.13;10.15;;;;;;;;;;4955105;28;20126;-67
2022/07/19 04:47:32;;;;;;;53.50;8.93;;;;;;;;;;4970769;28;20054;-68
2022/07/19 04:49:59;;;;;;;26.08;7.05;;;;;;;;;;4972021;28;20130;-65
2022/07/19 04:52:26;;;;;;;66.68;9.75;;;;;;;;;;4969325;28;20762;-65
2022/07/19 04:54:52;;;;;;;22.17;7.13;;;;;;;;;;4969523;28;20070;-67
2022/07/19 04:57:19;;;;;;;30.42;7.18;;;;;;;;;;4969979;28;20089;-70
2022/07/19 04:59:45;;;;;;;50.65;7.85;;;;;;;;;;4954928;28;20047;-73
2022/07/19 05:02:12;;;;;;;36.55;7.30;;;;;;;;;;4973963;28;20117;-71
2022/07/19 05:04:38;;;;;;;44.75;7.97;;;;;;;;;;4969610;28;20054;-65
2022/07/19 05:07:05;;;;;;;46.97;7.57;;;;;;;;;;4969174;28;20035;-64
2022/07/19 05:09:32;;;;;;;46.72;8.18;;;;;;;;;;4969033;28;20145;-64
2022/07/19 05:11:58;;;;;;;43.40;8.52;;;;;;;;;;4969771;28;20043;-66
2022/07/19 05:14:25;;;;;;;61.55;9.63;;;;;;;;;;4972084;28;20070;-65
2022/07/19 05:16:51;;;;;;;46.22;8.20;;;;;;;;;;4970347;28;20070;-65
2022/07/19 05:19:18;;;;;;;61.63;8.80;;;;;;;;;;4969026;28;20376;-65
2022/07/19 05:21:45;;;;;;;57.65;7.82;;;;;;;;;;4969022;28;20082;-67
2022/07/19 05:24:11;;;;;;;38.25;7.40;;;;;;;;;;4968766;28;20452;-68
2022/07/19 05:26:38;;;;;;;70.13;9.35;;;;;;;;;;4970645;28;20126;-68
2022/07/19 05:29:04;;;;;;;41.17;7.85;;;;;;;;;;4961240;28;20147;-65
2022/07/19 05:31:31;;;;;;;79.80;8.95;;;;;;;;;;4965238;28;20638;-64
2022/07/19 05:33:58;;;;;;;26.50;7.03;;;;;;;;;;4969160;28;20403;-65
2022/07/19 05:36:24;;;;;;;43.72;7.78;;;;;;;;;;4969190;28;20082;-67
2022/07/19 05:38:52;;;;;;;59.33;8.60;;;;;;;;;;4968627;28;20460;-65
2022/07/19 05:41:21;;;;;;;49.08;7.45;;;;;;;;;;4973672;28;20046;-68
2022/07/19 05:43:50;;;;;;;48.45;8.43;;;;;;;;;;4969593;28;20043;-69
2022/07/19 05:46:17;;;;;;;38.58;7.50;;;;;;;;;;4964563;28;20069;-67
2022/07/19 05:48:43;;;;;;;59.38;9.18;;;;;;;;;;4968482;28;20073;-62
2022/07/19 05:51:10;;;;;;;50.72;8.60;;;;;;;;;;4968713;28;20062;-60
2022/07/19 05:53:37;;;;;;;60.03;9.02;;;;;;;;;;4970189;28;20483;-65
2022/07/19 05:56:04;;;;;;;65.63;10.38;;;;;;;;;;4969411;28;20050;-67
2022/07/19 05:58:30;;;;;;;65.68;9.43;;;;;;;;;;4964590;28;20133;-70
2022/07/19 06:01:19;;;;;;;30.08;7.47;;;;;;;;;;4968559;28;20067;-68
2022/07/19 06:03:47;;;;;;;124.93;13.75;;;;;;;;;;4968157;28;20055;-70
2022/07/19 06:06:21;;;;;;;32.00;7.38;;;;;;;;;;4968550;28;20491;-62
2022/07/19 06:08:48;;;;;;;33.95;7.60;;;;;;;;;;4968406;28;20147;-66
2022/07/19 06:11:15;;;;;;;84.00;10.63;;;;;;;;;;4971917;28;20045;-68
2022/07/19 06:13:42;;;;;;;34.35;6.85;;;;;;;;;;4968598;28;20054;-67
2022/07/19 06:16:10;;;;;;;48.20;8.15;;;;;;;;;;4968159;28;20039;-67
2022/07/19 06:18:38;;;;;;;48.80;8.07;;;;;;;;;;4968044;28;20046;-67
2022/07/19 06:21:06;;;;;;;29.40;6.28;;;;;;;;;;4967938;28;20077;-67
2022/07/19 06:23:33;;;;;;;62.17;8.95;;;;;;;;;;4970516;28;20501;-68
2022/07/19 06:25:59;;;;;;;46.35;7.97;;;;;;;;;;4966347;28;20122;-68
2022/07/19 06:28:26;;;;;;;39.63;7.28;;;;;;;;;;4957068;28;20043;-68
2022/07/19 06:30:53;;;;;;;37.42;6.65;;;;;;;;;;4960775;28;20062;-68
2022/07/19 06:33:20;;;;;;;46.10;7.40;;;;;;;;;;4967910;28;20057;-69
2022/07/19 06:35:46;;;;;;;46.95;8.20;;;;;;;;;;4969044;28;20455;-68
2022/07/19 06:38:13;;;;;;;51.95;8.48;;;;;;;;;;4970171;28;20047;-67
2022/07/19 06:40:40;;;;;;;37.17;7.10;;;;;;;;;;4967029;28;20219;-70
2022/07/19 06:43:06;;;;;;;25.30;5.95;;;;;;;;;;4968283;28;20676;-71
2022/07/19 06:45:33;;;;;;;34.60;6.95;;;;;;;;;;4963947;28;20542;-70
2022/07/19 06:48:00;;;;;;;89.20;9.20;;;;;;;;;;4966981;28;20070;-71
2022/07/19 06:50:26;;;;;;;35.85;6.88;;;;;;;;;;4952973;28;20071;-71
2022/07/19 06:53:07;;;;;;;72.97;9.15;;;;;;;;;;4968792;28;20591;-71
2022/07/19 06:55:33;;;;;;;147.57;12.05;;;;;;;;;;4967441;28;20495;-71
2022/07/19 06:58:00;;;;;;;72.88;8.57;;;;;;;;;;4967678;28;20113;-72
2022/07/19 07:00:26;;;;;;;41.40;6.95;;;;;;;;;;4967786;28;20720;-72
2022/07/19 07:02:53;;;;;;;70.55;9.40;;;;;;;;;;4968229;28;20043;-71
2022/07/19 07:05:20;;;;;;;44.20;6.93;;;;;;;;;;4968118;28;20134;-72
2022/07/19 07:07:47;;;;;;;61.70;8.68;;;;;;;;;;4967632;28;20039;-72
2022/07/19 07:10:14;;;;;;;62.53;9.40;;;;;;;;;;4967504;28;20503;-72
2022/07/19 07:12:40;;;;;;;44.33;7.50;;;;;;;;;;4968012;28;20043;-72
2022/07/19 07:15:07;;;;;;;23.45;6.22;;;;;;;;;;4967949;28;20044;-72
2022/07/19 07:17:37;;;;;;;91.57;24.15;;;;;;;;;;4970225;28;20050;-73
2022/07/19 07:20:05;;;;;;;37.55;7.35;;;;;;;;;;4969959;28;20082;-72
2022/07/19 07:22:31;;;;;;;43.90;6.82;;;;;;;;;;4969655;28;20050;-69
2022/07/19 07:24:58;;;;;;;44.40;6.72;;;;;;;;;;4962662;28;20130;-72
2022/07/19 07:27:25;;;;;;;24.92;5.70;;;;;;;;;;4965951;28;20035;-72
2022/07/19 07:29:51;;;;;;;29.15;5.90;;;;;;;;;;4972288;28;20122;-78
2022/07/19 07:32:18;;;;;;;60.70;8.48;;;;;;;;;;4975913;28;20576;-79
2022/07/19 07:34:45;;;;;;;37.47;6.22;;;;;;;;;;4971191;28;20039;-74
2022/07/19 07:37:12;;;;;;;36.30;6.22;;;;;;;;;;4971219;28;20039;-70
2022/07/19 07:39:38;;;;;;;47.83;6.55;;;;;;;;;;4970530;28;20154;-71
2022/07/19 07:42:05;;;;;;;39.22;5.78;;;;;;;;;;4971112;28;20067;-70
2022/07/19 07:44:38;;;;;;;;;;;;;;;;;;4972775;28;20050;-71
2022/07/19 07:47:08;;;;;;;36.35;5.35;;;;;;;;;;4969233;28;19972;-70
2022/07/19 07:49:35;;;;;;;52.67;6.20;;;;;;;;;;4969967;28;20062;-73
2022/07/19 07:52:02;;;;;;;36.88;5.57;;;;;;;;;;4971200;28;20070;-73
2022/07/19 07:54:28;;;;;;;37.42;5.80;;;;;;;;;;4970304;28;20061;-73
2022/07/19 07:56:55;;;;;;;50.40;6.20;;;;;;;;;;4970701;28;20046;-69
2022/07/19 07:59:22;;;;;;;40.08;5.80;;;;;;;;;;4971393;28;20062;-66
2022/07/19 08:01:48;;;;;;;92.68;8.73;;;;;;;;;;4969924;28;20574;-67
2022/07/19 08:04:24;;;;;;;35.80;4.85;;;;;;;;;;4970193;28;20085;-72
2022/07/19 08:06:50;;;;;;;54.72;6.88;;;;;;;;;;4970057;28;20035;-71
2022/07/19 08:09:17;;;;;;;48.40;5.82;;;;;;;;;;4970353;28;20058;-71
2022/07/19 08:11:43;;;;;;;69.75;7.78;;;;;;;;;;4962855;28;20039;-69
2022/07/19 08:14:10;;;;;;;44.75;6.25;;;;;;;;;;4972974;28;20412;-67
2022/07/19 08:16:37;;;;;;;55.33;6.45;;;;;;;;;;4970338;28;20043;-69
2022/07/19 08:19:03;;;;;;;51.78;6.35;;;;;;;;;;4969301;28;20198;-68
2022/07/19 08:21:30;;;;;;;44.72;5.75;;;;;;;;;;4949087;28;20070;-67
2022/07/19 08:23:57;;;;;;;90.78;15.48;;;;;;;;;;4954721;28;20053;-66
2022/07/19 08:26:24;;;;;;;57.38;6.60;;;;;;;;;;4957692;28;20070;-70
2022/07/19 08:28:50;;;;;;;95.18;12.85;;;;;;;;;;4970130;28;20046;-67
2022/07/19 08:31:17;;;;;;;74.22;7.85;;;;;;;;;;4966491;28;20027;-61
2022/07/19 08:33:44;;;;;;;58.88;8.55;;;;;;;;;;4965254;28;20640;-64
2022/07/19 08:36:11;;;;;;;151.57;13.30;;;;;;;;;;4956116;28;20047;-60
2022/07/19 08:38:38;;;;;;;117.20;10.75;;;;;;;;;;4971686;28;20071;-65
2022/07/19 08:41:06;;;;;;;71.35;7.43;;;;;;;;;;4971803;28;20130;-61
2022/07/19 08:43:32;;;;;;;53.17;6.40;;;;;;;;;;4960903;28;20411;-65
2022/07/19 08:46:00;;;;;;;37.78;5.72;;;;;;;;;;4958441;28;20078;-67
2022/07/19 08:48:31;;;;;;;53.97;6.22;;;;;;;;;;4962773;28;20537;-63
2022/07/19 08:51:04;;;;;;;36.50;5.25;;;;;;;;;;4970008;28;20505;-67
2022/07/19 08:53:31;;;;;;;45.35;6.00;;;;;;;;;;4972846;28;20431;-63
2022/07/19 08:55:59;;;;;;;55.60;6.32;;;;;;;;;;4971570;28;20514;-64
2022/07/19 08:58:25;;;;;;;73.07;7.10;;;;;;;;;;4968884;28;20066;-66
2022/07/19 09:00:52;;;;;;;36.90;5.30;;;;;;;;;;4969440;28;20499;-63
2022/07/19 09:03:19;;;;;;;48.75;5.78;;;;;;;;;;4969875;28;20038;-64
2022/07/19 09:05:46;;;;;;;44.30;6.18;;;;;;;;;;4970731;28;20472;-63
2022/07/19 09:08:15;;;;;;;36.47;5.80;;;;;;;;;;4972641;28;20503;-65
2022/07/19 09:11:14;;;;;;;54.63;7.35;;;;;;;;;;4969194;28;20503;-66
2022/07/19 09:13:35;;;;;;;48.20;6.30;;;;;;;;;;4952481;28;20408;-66
2022/07/19 09:16:03;;;;;;;34.35;5.97;;;;;;;;;;4966707;28;20046;-67
2022/07/19 09:18:33;;;;;;;56.55;6.75;;;;;;;;;;4969055;28;20042;-65
2022/07/19 09:21:06;;;;;;;36.78;9.18;;;;;;;;;;4954408;28;20074;-71
2022/07/19 09:23:33;;;;;;;52.63;7.18;;;;;;;;;;4959400;28;20043;-68
2022/07/19 09:26:01;;;;;;;48.38;6.53;;;;;;;;;;4970733;28;20042;-64
2022/07/19 09:28:30;;;;;;;53.38;6.70;;;;;;;;;;4951675;28;20109;-64
2022/07/19 09:30:58;;;;;;;50.72;7.20;;;;;;;;;;4968635;28;20122;-64
2022/07/19 09:33:26;;;;;;;48.20;6.78;;;;;;;;;;4969122;28;20038;-65
2022/07/19 09:35:57;;;;;;;56.92;7.50;;;;;;;;;;4969081;28;20045;-64
2022/07/19 09:38:25;;;;;;;111.13;10.93;;;;;;;;;;4962903;28;20129;-67
2022/07/19 09:41:07;;;;;;;70.15;8.77;;;;;;;;;;4965114;28;20057;-63
2022/07/19 09:43:58;;;;;;;66.22;8.20;;;;;;;;;;4967895;28;20117;-63
2022/07/19 09:46:28;;;;;;;23.73;4.97;;;;;;;;;;4958383;28;20059;-66
2022/07/19 09:49:01;;;;;;;57.97;7.68;;;;;;;;;;4968312;28;20097;-71
2022/07/19 09:51:28;;;;;;;53.22;7.32;;;;;;;;;;4968659;28;20066;-72
2022/07/19 09:53:55;;;;;;;20.30;4.70;;;;;;;;;;4968968;28;20134;-67
2022/07/19 09:56:22;;;;;;;91.70;9.55;;;;;;;;;;4973018;28;20488;-71
2022/07/19 09:58:49;;;;;;;56.15;6.93;;;;;;;;;;4967935;28;20488;-68
2022/07/19 10:01:16;;;;;;;67.00;7.68;;;;;;;;;;4967957;28;20507;-70
2022/07/19 10:03:43;;;;;;;45.35;6.55;;;;;;;;;;4968087;28;20125;-63
2022/07/19 10:06:17;;;;;;;59.33;7.10;;;;;;;;;;4968027;28;20064;-65
2022/07/19 10:08:44;;;;;;;50.38;6.90;;;;;;;;;;4969171;28;20054;-60
2022/07/19 10:11:11;;;;;;;56.75;8.50;;;;;;;;;;4968926;28;20078;-63
2022/07/19 10:13:38;;;;;;;105.53;9.13;;;;;;;;;;4965993;28;20039;-62
2022/07/19 10:16:07;;;;;;;96.25;8.13;;;;;;;;;;4968089;28;20045;-61
2022/07/19 10:18:37;;;;;;;89.82;8.88;;;;;;;;;;4967843;28;20077;-64
2022/07/19 10:21:04;;;;;;;59.47;7.28;;;;;;;;;;4962139;28;20484;-64
2022/07/19 10:23:33;;;;;;;35.05;5.40;;;;;;;;;;4971158;28;20488;-63
2022/07/19 10:26:00;;;;;;;20.13;3.35;;;;;;;;;;4957443;28;20130;-62
2022/07/19 10:28:26;;;;;;;27.95;3.85;;;;;;;;;;4964554;28;20063;-64
2022/07/19 10:31:25;;;;;;;36.03;5.47;;;;;;;;;;4968122;28;20124;-62
2022/07/19 10:33:59;;;;;;;40.42;4.40;;;;;;;;;;4968543;28;20053;-61
2022/07/19 10:36:40;;;;;;;37.38;4.50;;;;;;;;;;4967685;28;20066;-62
2022/07/19 10:39:26;;;;;;;59.72;6.15;;;;;;;;;;4949648;28;20622;-61
2022/07/19 10:42:04;;;;;;;93.75;7.03;;;;;;;;;;4967779;28;20047;-62
2022/07/19 10:44:31;;;;;;;54.67;5.60;;;;;;;;;;4971387;28;20491;-66
2022/07/19 10:46:59;;;;;;;70.22;6.95;;;;;;;;;;4967516;28;20034;-63
2022/07/19 10:49:42;;;;;;;18.92;3.70;;;;;;;;;;4968009;28;20050;-61
2022/07/19 10:52:27;;;;;;;85.80;7.35;;;;;;;;;;4967039;28;20130;-61
2022/07/19 10:55:12;;;;;;;80.88;6.57;;;;;;;;;;4967818;28;20499;-62
2022/07/19 10:57:38;;;;;;;23.52;4.07;;;;;;;;;;4967198;28;20082;-66
2022/07/19 11:00:26;;;;;;;44.97;5.10;;;;;;;;;;4967544;28;20062;-63
2022/07/19 11:03:12;;;;;;;28.30;4.13;;;;;;;;;;4968685;28;20039;-61
2022/07/19 11:05:46;;;;;;;60.38;6.22;;;;;;;;;;4965410;28;20055;-62
2022/07/19 11:08:12;;;;;;;25.80;3.90;;;;;;;;;;4964821;28;20036;-61
2022/07/19 11:10:39;;;;;;;30.65;4.25;;;;;;;;;;4964182;28;20483;-61
2022/07/19 11:13:06;;;;;;;197.15;19.67;;;;;;;;;;4967045;28;20421;-62
2022/07/19 11:15:32;;;;;;;35.08;4.93;;;;;;;;;;4962881;28;20131;-63
2022/07/19 11:18:05;;;;;;;36.72;8.13;;;;;;;;;;4967771;28;20495;-67
2022/07/19 11:20:33;;;;;;;89.15;7.93;;;;;;;;;;4953955;28;20404;-62
2022/07/19 11:23:01;;;;;;;54.88;5.78;;;;;;;;;;4966672;28;20045;-62
2022/07/19 11:25:29;;;;;;;31.92;4.25;;;;;;;;;;4966914;28;20499;-64
2022/07/19 11:27:56;;;;;;;33.92;4.43;;;;;;;;;;4966932;28;20088;-64
2022/07/19 11:30:24;;;;;;;34.47;4.30;;;;;;;;;;4967749;28;20039;-61
2022/07/19 11:33:02;;;;;;;71.07;6.10;;;;;;;;;;4968626;28;20075;-61
2022/07/19 11:35:28;;;;;;;59.22;6.68;;;;;;;;;;4964663;28;20384;-61
2022/07/19 11:37:56;;;;;;;58.78;6.13;;;;;;;;;;4964773;28;20098;-64
2022/07/19 11:40:24;;;;;;;37.10;4.90;;;;;;;;;;4967308;28;20562;-63
2022/07/19 11:42:51;;;;;;;67.00;5.90;;;;;;;;;;4967242;28;20105;-65
2022/07/19 11:45:42;;;;;;;53.53;6.38;;;;;;;;;;4966759;28;20039;-62
2022/07/19 11:48:11;;;;;;;;;;;;;;;;;;4968369;28;20457;-62
2022/07/19 11:50:40;;;;;;;43.72;5.53;;;;;;;;;;4970432;28;19976;-61
2022/07/19 11:53:18;;;;;;;31.92;4.25;;;;;;;;;;4970043;28;20051;-62
2022/07/19 11:55:46;;;;;;;46.03;5.28;;;;;;;;;;4966919;28;20454;-67
2022/07/19 11:58:13;;;;;;;47.72;5.60;;;;;;;;;;4966881;28;20145;-62
2022/07/19 12:00:43;;;;;;;61.30;6.53;;;;;;;;;;4966764;28;20047;-62
2022/07/19 12:03:14;;;;;;;26.13;3.90;;;;;;;;;;4967430;28;20095;-59
2022/07/19 12:05:52;;;;;;;65.43;6.53;;;;;;;;;;4947418;28;20050;-60
2022/07/19 12:08:19;;;;;;;46.60;5.15;;;;;;;;;;4972354;28;20046;-59
2022/07/19 12:10:48;;;;;;;46.30;5.35;;;;;;;;;;4952497;28;20473;-61
2022/07/19 12:13:26;;;;;;;40.85;5.13;;;;;;;;;;4970113;28;20145;-61
2022/07/19 12:15:54;;;;;;;27.25;3.97;;;;;;;;;;4967601;28;20039;-63
2022/07/19 12:18:23;;;;;;;51.60;5.53;;;;;;;;;;4945250;28;20371;-61
2022/07/19 12:21:09;;;;;;;65.22;6.22;;;;;;;;;;4971449;28;20055;-61
2022/07/19 12:23:35;;;;;;;84.32;8.07;;;;;;;;;;4969883;28;20071;-61
2022/07/19 12:26:03;;;;;;;42.78;5.63;;;;;;;;;;4970245;28;20396;-60
2022/07/19 12:28:29;;;;;;;37.55;5.28;;;;;;;;;;4969247;28;20101;-60
2022/07/19 12:31:03;;;;;;;78.72;6.80;;;;;;;;;;4969289;28;20062;-64
2022/07/19 12:33:29;;;;;;;47.17;5.88;;;;;;;;;;4969341;28;20117;-63
2022/07/19 12:35:56;;;;;;;36.60;4.93;;;;;;;;;;4969666;28;20079;-63
2022/07/19 12:38:27;;;;;;;82.05;8.13;;;;;;;;;;4973307;28;20098;-63
2022/07/19 12:41:03;;;;;;;87.03;8.23;;;;;;;;;;4967796;28;20039;-61
2022/07/19 12:43:29;;;;;;;73.50;7.82;;;;;;;;;;4969993;28;20035;-61
2022/07/19 12:45:58;;;;;;;87.57;8.23;;;;;;;;;;4969356;28;20126;-61
2022/07/19 12:48:25;;;;;;;70.70;7.20;;;;;;;;;;4969549;28;20055;-60
2022/07/19 12:50:52;;;;;;;55.25;6.28;;;;;;;;;;4970506;28;20066;-62
2022/07/19 12:53:20;;;;;;;76.38;7.55;;;;;;;;;;4963540;28;20081;-62
2022/07/19 12:55:47;;;;;;;45.60;5.95;;;;;;;;;;4969261;28;20125;-60
2022/07/19 12:59:38;;;;;;;43.28;4.78;;;;;;;;;;4952009;28;20554;-60
2022/07/19 13:01:02;;;;;;;44.17;4.72;;;;;;;;;;4965821;28;20034;-58
2022/07/19 13:03:29;;;;;;;61.13;6.43;;;;;;;;;;4969441;28;20039;-59
2022/07/19 13:05:59;;;;;;;95.78;8.25;;;;;;;;;;4970037;28;20058;-61
2022/07/19 13:08:26;;;;;;;42.95;5.60;;;;;;;;;;4969762;28;20404;-61
2022/07/19 13:10:54;;;;;;;72.63;11.45;;;;;;;;;;4968941;28;20046;-60
2022/07/19 13:13:20;;;;;;;62.10;12.07;;;;;;;;;;4969371;28;20061;-61
2022/07/19 13:15:47;;;;;;;33.13;5.15;;;;;;;;;;4969408;28;20053;-60
2022/07/19 13:18:14;;;;;;;65.97;7.38;;;;;;;;;;4956710;28;20043;-61
2022/07/19 13:20:40;;;;;;;75.15;9.18;;;;;;;;;;4971418;28;20542;-61
2022/07/19 13:23:07;;;;;;;47.20;11.90;;;;;;;;;;4970657;28;20126;-61
2022/07/19 13:25:33;;;;;;;68.93;7.85;;;;;;;;;;4968963;28;20062;-60
2022/07/19 13:28:11;;;;;;;39.67;5.53;;;;;;;;;;4961748;28;20046;-62
2022/07/19 13:30:37;;;;;;;46.35;5.95;;;;;;;;;;4955351;28;20066;-63
2022/07/19 13:33:04;;;;;;;86.88;8.80;;;;;;;;;;4940940;28;20463;-63
2022/07/19 13:35:34;;;;;;;35.90;7.35;;;;;;;;;;4972278;28;20047;-67
2022/07/19 13:38:01;;;;;;;107.95;10.60;;;;;;;;;;4968775;28;20126;-67
2022/07/19 13:40:28;;;;;;;68.85;6.38;;;;;;;;;;4964411;28;20046;-68
2022/07/19 13:42:54;;;;;;;32.72;5.55;;;;;;;;;;4968945;28;20046;-68
2022/07/19 13:45:21;;;;;;;47.92;16.23;;;;;;;;;;4968841;28;20051;-66
2022/07/19 13:47:47;;;;;;;59.17;7.05;;;;;;;;;;4957076;28;20445;-67
2022/07/19 13:50:14;;;;;;;78.68;8.00;;;;;;;;;;4957567;28;20047;-66
2022/07/19 13:52:40;;;;;;;30.35;5.20;;;;;;;;;;4963317;28;20125;-69
2022/07/19 13:55:07;;;;;;;49.80;6.05;;;;;;;;;;4968362;28;20043;-66
2022/07/19 13:57:34;;;;;;;32.80;5.40;;;;;;;;;;4968697;28;20550;-69
2022/07/19 14:00:00;;;;;;;26.05;12.40;;;;;;;;;;4968705;28;20039;-71
2022/07/19 14:02:37;;;;;;;55.38;10.52;;;;;;;;;;4971982;28;20107;-66
2022/07/19 14:05:05;;;;;;;100.63;55.13;;;;;;;;;;4969990;28;20214;-69
2022/07/19 14:07:31;;;;;;;67.72;8.90;;;;;;;;;;4965912;28;20067;-66
2022/07/19 14:09:58;;;;;;;67.78;7.32;;;;;;;;;;4966204;28;20701;-67
2022/07/19 14:12:24;;;;;;;71.57;7.47;;;;;;;;;;4966549;28;20109;-65
2022/07/19 14:14:51;;;;;;;58.35;7.38;;;;;;;;;;4953720;28;20110;-68
2022/07/19 14:17:17;;;;;;;99.38;9.18;;;;;;;;;;4969809;28;20066;-67
2022/07/19 14:19:44;;;;;;;39.97;9.13;;;;;;;;;;4966938;28;20050;-72
2022/07/19 14:22:11;;;;;;;41.30;6.38;;;;;;;;;;4966982;28;20066;-69
2022/07/19 14:24:37;;;;;;;130.18;10.77;;;;;;;;;;4966878;28;20038;-69
2022/07/19 14:27:04;;;;;;;45.20;6.85;;;;;;;;;;4966688;28;20051;-69
2022/07/19 14:29:31;;;;;;;46.75;6.28;;;;;;;;;;4970760;28;20519;-68
2022/07/19 14:31:57;;;;;;;80.00;8.75;;;;;;;;;;4965976;28;20145;-69
2022/07/19 14:34:24;;;;;;;71.70;7.30;;;;;;;;;;4966011;28;20041;-68